Time;durP1;ratioP1;P1;durP2;ratioP2;P2;SDS_P1;SDS_P2;PMS_P1;PMS_P2;Temp;Humidity;BMP_temperature;BMP_pressure;BME280_temperature;BME280_humidity;BME280_pressure;Samples;Min_cycle;Max_cycle;Signal;HPM_P1;HPM_P2
2023/09/25 00:01:25;;;;;;;2.97;2.15;;;8.80;99.90;;;;;;4992884;28;20240;-64
2023/09/25 00:03:52;;;;;;;2.40;2.20;;;8.80;99.90;;;;;;4992575;28;20262;-64
2023/09/25 00:06:18;;;;;;;2.30;2.10;;;8.80;99.90;;;;;;4993243;28;20229;-64
2023/09/25 00:08:46;;;;;;;2.30;2.20;;;8.80;99.90;;;;;;4993329;28;20219;-65
2023/09/25 00:11:13;;;;;;;1.95;1.85;;;8.70;99.90;;;;;;4992564;28;20211;-65
2023/09/25 00:13:40;;;;;;;1.90;1.80;;;8.70;99.90;;;;;;4992662;28;20256;-65
2023/09/25 00:16:12;;;;;;;2.00;1.90;;;8.60;99.90;;;;;;4992806;28;20453;-65
2023/09/25 00:18:39;;;;;;;1.80;1.70;;;8.60;99.90;;;;;;4992887;28;20220;-65
2023/09/25 00:21:06;;;;;;;2.63;2.45;;;8.60;99.90;;;;;;4992923;28;21226;-64
2023/09/25 00:23:33;;;;;;;2.75;2.55;;;8.60;99.90;;;;;;4992678;28;20237;-65
2023/09/25 00:26:05;;;;;;;2.83;2.70;;;8.60;99.90;;;;;;4992813;28;20244;-65
2023/09/25 00:28:32;;;;;;;2.00;1.90;;;8.60;99.90;;;;;;4992996;28;20651;-66
2023/09/25 00:30:59;;;;;;;1.85;1.35;;;8.50;99.90;;;;;;4992987;28;20211;-65
2023/09/25 00:33:27;;;;;;;1.85;1.73;;;8.50;99.90;;;;;;4992463;28;20231;-65
2023/09/25 00:35:54;;;;;;;2.05;1.95;;;8.50;99.90;;;;;;4992597;28;20690;-65
2023/09/25 00:38:21;;;;;;;2.10;2.00;;;8.50;99.90;;;;;;4992645;28;20209;-65
2023/09/25 00:40:48;;;;;;;2.00;1.90;;;8.50;99.90;;;;;;4992598;28;20963;-65
2023/09/25 00:43:16;;;;;;;2.20;2.10;;;8.40;99.90;;;;;;4992606;28;20232;-65
2023/09/25 00:45:47;;;;;;;3.72;2.00;;;8.40;99.90;;;;;;4992516;28;20228;-65
2023/09/25 00:48:23;;;;;;;2.80;2.60;;;8.40;99.90;;;;;;4991953;28;20697;-65
2023/09/25 00:50:50;;;;;;;2.72;2.53;;;8.40;99.90;;;;;;4992414;28;20577;-65
2023/09/25 00:53:17;;;;;;;2.35;1.73;;;8.30;99.90;;;;;;4991949;28;20225;-65
2023/09/25 00:55:44;;;;;;;2.05;1.95;;;8.30;99.90;;;;;;4992334;28;20292;-65
2023/09/25 00:58:12;;;;;;;2.47;2.38;;;8.30;99.90;;;;;;4992275;28;20208;-65
2023/09/25 01:00:41;;;;;;;2.25;2.15;;;8.30;99.90;;;;;;4992439;28;20211;-64
2023/09/25 01:03:08;;;;;;;2.20;2.10;;;8.20;99.90;;;;;;4992022;28;20229;-64
2023/09/25 01:05:38;;;;;;;2.35;2.15;;;8.20;99.90;;;;;;4991865;28;20613;-65
2023/09/25 01:08:06;;;;;;;3.08;1.77;;;8.20;99.90;;;;;;4992498;28;20590;-65
2023/09/25 01:10:33;;;;;;;2.45;2.25;;;8.20;99.90;;;;;;4992032;28;20217;-65
2023/09/25 01:13:01;;;;;;;5.32;2.35;;;8.20;99.90;;;;;;4991596;28;20759;-65
2023/09/25 01:15:28;;;;;;;2.60;2.10;;;8.20;99.90;;;;;;4992119;28;20207;-64
2023/09/25 01:17:57;;;;;;;2.45;2.35;;;8.20;99.90;;;;;;4992055;28;20224;-65
2023/09/25 01:20:25;;;;;;;2.83;2.38;;;8.20;99.90;;;;;;4992139;28;20203;-65
2023/09/25 01:22:53;;;;;;;2.03;1.83;;;8.10;99.90;;;;;;4991774;28;20761;-64
2023/09/25 01:25:23;;;;;;;3.38;2.58;;;8.10;99.90;;;;;;4992272;28;20603;-64
2023/09/25 01:27:49;;;;;;;2.15;1.95;;;8.10;99.90;;;;;;4991286;28;20207;-65
2023/09/25 01:30:17;;;;;;;2.80;2.60;;;8.10;99.90;;;;;;4991870;28;20204;-64
2023/09/25 01:32:45;;;;;;;2.55;2.35;;;8.10;99.90;;;;;;4991883;28;20232;-65
2023/09/25 01:35:15;;;;;;;3.42;3.22;;;8.00;99.90;;;;;;4991976;28;20215;-64
2023/09/25 01:37:42;;;;;;;2.92;2.70;;;8.10;99.90;;;;;;4991683;28;20223;-65
2023/09/25 01:40:17;;;;;;;3.22;3.03;;;8.10;99.90;;;;;;4991987;28;20207;-64
2023/09/25 01:42:44;;;;;;;2.38;2.10;;;8.00;99.90;;;;;;4991661;28;20282;-65
2023/09/25 01:45:13;;;;;;;3.28;3.08;;;8.00;99.90;;;;;;4991645;28;20223;-65
2023/09/25 01:47:42;;;;;;;2.42;2.33;;;8.00;99.90;;;;;;4991754;28;20305;-65
2023/09/25 01:50:10;;;;;;;2.67;2.50;;;8.00;99.90;;;;;;4991777;28;20295;-64
2023/09/25 01:52:38;;;;;;;2.58;2.38;;;8.00;99.90;;;;;;4991585;28;20282;-65
2023/09/25 01:55:05;;;;;;;2.47;2.38;;;8.00;99.90;;;;;;4991583;28;20299;-64
2023/09/25 01:57:35;;;;;;;3.28;3.00;;;8.00;99.90;;;;;;4991618;28;20247;-65
2023/09/25 02:00:07;;;;;;;2.17;2.08;;;7.90;99.90;;;;;;4991645;28;20653;-64
2023/09/25 02:02:34;;;;;;;2.58;2.38;;;7.90;99.90;;;;;;4991446;28;20232;-65
2023/09/25 02:05:01;;;;;;;2.47;2.05;;;7.80;99.90;;;;;;4991295;28;20232;-64
2023/09/25 02:07:28;;;;;;;2.97;2.78;;;7.80;99.90;;;;;;4991382;28;20303;-64
2023/09/25 02:09:54;;;;;;;2.95;2.75;;;7.80;99.90;;;;;;4991731;28;20214;-64
2023/09/25 02:12:21;;;;;;;3.13;2.97;;;7.80;99.90;;;;;;4991252;28;20329;-65
2023/09/25 02:14:52;;;;;;;2.58;2.38;;;7.80;99.90;;;;;;4991387;28;20303;-65
2023/09/25 02:17:19;;;;;;;3.20;3.00;;;7.80;99.90;;;;;;4991322;28;20749;-65
2023/09/25 02:19:46;;;;;;;3.05;2.85;;;7.80;99.90;;;;;;4991751;28;20636;-64
2023/09/25 02:22:13;;;;;;;3.42;3.22;;;7.80;99.90;;;;;;4991202;28;20210;-64
2023/09/25 02:24:39;;;;;;;3.10;2.90;;;7.80;99.90;;;;;;4991178;28;20219;-65
2023/09/25 02:27:06;;;;;;;3.63;3.33;;;7.70;99.90;;;;;;4991403;28;20586;-64
2023/09/25 02:29:33;;;;;;;3.20;3.03;;;7.70;99.90;;;;;;4991576;28;20211;-65
2023/09/25 02:32:01;;;;;;;2.92;2.72;;;7.70;99.90;;;;;;4991046;28;20222;-65
2023/09/25 02:34:28;;;;;;;3.22;3.03;;;7.70;99.90;;;;;;4992505;28;20212;-65
2023/09/25 02:36:55;;;;;;;3.47;3.17;;;7.60;99.90;;;;;;4995077;28;20585;-65
2023/09/25 02:39:22;;;;;;;3.70;3.40;;;7.60;99.90;;;;;;4994867;28;20209;-64
2023/09/25 02:41:49;;;;;;;3.33;3.13;;;7.60;99.90;;;;;;4994775;28;20223;-65
2023/09/25 02:44:16;;;;;;;3.35;3.15;;;7.60;99.90;;;;;;4994333;28;20230;-65
2023/09/25 02:46:42;;;;;;;2.47;2.38;;;7.60;99.90;;;;;;4994729;28;20233;-65
2023/09/25 02:49:11;;;;;;;3.40;2.90;;;7.60;99.90;;;;;;4995036;28;20204;-65
2023/09/25 02:51:37;;;;;;;3.55;3.35;;;7.50;99.90;;;;;;4994973;28;20649;-65
2023/09/25 02:54:04;;;;;;;2.85;2.65;;;7.50;99.90;;;;;;4994446;28;20235;-64
2023/09/25 02:56:31;;;;;;;3.40;3.13;;;7.50;99.90;;;;;;4994822;28;20296;-64
2023/09/25 02:58:58;;;;;;;3.33;3.13;;;7.50;99.90;;;;;;4994580;28;20204;-64
2023/09/25 03:01:25;;;;;;;3.22;3.03;;;7.40;99.90;;;;;;4994408;28;20298;-65
2023/09/25 03:03:52;;;;;;;4.15;2.90;;;7.40;99.90;;;;;;4994307;28;20635;-64
2023/09/25 03:06:20;;;;;;;2.95;2.75;;;7.40;99.90;;;;;;4994174;28;20258;-65
2023/09/25 03:08:47;;;;;;;4.38;3.65;;;7.40;99.90;;;;;;4994494;28;20204;-65
2023/09/25 03:11:14;;;;;;;3.55;3.00;;;7.40;99.90;;;;;;4992842;28;20238;-65
2023/09/25 03:13:41;;;;;;;4.05;3.85;;;7.30;99.90;;;;;;4993727;28;20243;-65
2023/09/25 03:16:14;;;;;;;3.72;3.42;;;7.30;99.90;;;;;;4994171;28;21305;-65
2023/09/25 03:18:40;;;;;;;3.15;2.95;;;7.30;99.90;;;;;;4994328;28;20208;-64
2023/09/25 03:21:12;;;;;;;2.53;2.42;;;7.30;99.90;;;;;;4994180;28;20210;-65
2023/09/25 03:23:41;;;;;;;3.17;2.88;;;7.20;99.90;;;;;;4994036;28;20281;-65
2023/09/25 03:26:18;;;;;;;5.13;2.85;;;7.20;99.90;;;;;;4993874;28;20238;-64
2023/09/25 03:28:46;;;;;;;3.00;2.80;;;7.20;99.90;;;;;;4994171;28;20209;-65
2023/09/25 03:31:13;;;;;;;3.05;2.85;;;7.20;99.90;;;;;;4994250;28;20214;-64
2023/09/25 03:33:41;;;;;;;3.47;3.15;;;7.20;99.90;;;;;;4993686;28;20665;-64
2023/09/25 03:36:08;;;;;;;3.55;3.35;;;7.20;99.90;;;;;;4994133;28;20204;-65
2023/09/25 03:38:37;;;;;;;4.45;4.15;;;7.20;99.90;;;;;;4993159;28;20211;-65
2023/09/25 03:41:05;;;;;;;2.75;2.55;;;7.20;99.90;;;;;;4994012;28;20302;-65
2023/09/25 03:43:32;;;;;;;3.42;3.17;;;7.10;99.90;;;;;;4994011;28;20227;-65
2023/09/25 03:45:59;;;;;;;4.05;3.17;;;7.10;99.90;;;;;;4993403;28;20322;-65
2023/09/25 03:48:26;;;;;;;3.20;2.90;;;7.10;99.90;;;;;;4994370;28;20305;-65
2023/09/25 03:50:52;;;;;;;2.58;2.38;;;7.00;99.90;;;;;;4994170;28;20295;-65
2023/09/25 03:53:19;;;;;;;3.63;2.92;;;7.10;99.90;;;;;;4994008;28;20232;-65
2023/09/25 03:55:46;;;;;;;2.70;2.60;;;7.00;99.90;;;;;;4994539;28;20215;-65
2023/09/25 03:58:15;;;;;;;3.50;3.10;;;7.00;99.90;;;;;;4994179;28;20279;-65
2023/09/25 04:00:42;;;;;;;3.95;3.65;;;7.00;99.90;;;;;;4993939;28;20204;-65
2023/09/25 04:03:08;;;;;;;3.53;3.33;;;7.00;99.90;;;;;;4993825;28;20238;-65
2023/09/25 04:05:35;;;;;;;2.80;2.60;;;7.00;99.90;;;;;;4994334;28;20238;-65
2023/09/25 04:08:03;;;;;;;3.40;3.10;;;6.90;99.90;;;;;;4994257;28;20311;-65
2023/09/25 04:10:30;;;;;;;3.13;2.92;;;7.00;99.90;;;;;;4993910;28;20208;-65
2023/09/25 04:12:57;;;;;;;2.92;2.72;;;6.90;99.90;;;;;;5006555;28;20272;-65
2023/09/25 04:15:26;;;;;;;3.03;2.72;;;6.90;99.90;;;;;;5012754;28;20239;-65
2023/09/25 04:17:53;;;;;;;3.65;2.60;;;7.00;99.90;;;;;;5005725;28;20199;-65
2023/09/25 04:20:24;;;;;;;3.20;3.00;;;6.90;99.90;;;;;;5013721;28;20885;-65
2023/09/25 04:22:51;;;;;;;3.30;3.10;;;6.90;99.90;;;;;;5013074;28;20231;-65
2023/09/25 04:25:19;;;;;;;2.85;2.65;;;6.80;99.90;;;;;;5013021;28;20207;-64
2023/09/25 04:27:47;;;;;;;2.95;2.75;;;6.80;99.90;;;;;;5012628;28;20210;-65
2023/09/25 04:30:15;;;;;;;4.35;4.05;;;6.80;99.90;;;;;;5013078;28;20298;-65
2023/09/25 04:32:44;;;;;;;3.00;2.80;;;6.80;99.90;;;;;;5012407;28;20234;-65
2023/09/25 04:35:12;;;;;;;3.25;3.05;;;6.80;99.90;;;;;;5004347;28;20203;-65
2023/09/25 04:37:39;;;;;;;3.63;3.42;;;6.80;99.90;;;;;;5012978;28;20214;-65
2023/09/25 04:40:13;;;;;;;3.35;2.85;;;6.80;99.90;;;;;;5013057;28;20643;-64
2023/09/25 04:42:41;;;;;;;2.78;2.53;;;6.70;99.90;;;;;;5012514;28;20223;-65
2023/09/25 04:45:12;;;;;;;2.97;2.88;;;6.70;99.90;;;;;;5013079;28;20203;-65
2023/09/25 04:47:39;;;;;;;3.25;3.05;;;6.70;99.90;;;;;;5012655;28;20380;-65
2023/09/25 04:50:09;;;;;;;3.53;3.33;;;6.60;99.90;;;;;;5012779;28;20571;-65
2023/09/25 04:52:36;;;;;;;3.47;3.17;;;6.60;99.90;;;;;;5012393;28;20301;-65
2023/09/25 04:55:06;;;;;;;3.67;3.38;;;6.60;99.90;;;;;;5012094;28;20206;-65
2023/09/25 04:57:33;;;;;;;3.10;2.90;;;6.60;99.90;;;;;;5012228;28;20203;-66
2023/09/25 05:00:02;;;;;;;4.35;3.97;;;6.60;99.90;;;;;;5012460;28;20580;-65
2023/09/25 05:02:32;;;;;;;3.30;3.10;;;6.60;99.90;;;;;;5012435;28;20274;-64
2023/09/25 05:04:58;;;;;;;5.00;3.50;;;6.60;99.90;;;;;;5012154;28;20295;-65
2023/09/25 05:07:26;;;;;;;3.78;3.40;;;6.60;99.90;;;;;;5012289;28;20245;-65
2023/09/25 05:09:53;;;;;;;4.82;4.45;;;6.60;99.90;;;;;;5012043;28;20673;-65
2023/09/25 05:12:20;;;;;;;2.75;2.65;;;6.60;99.90;;;;;;5012210;28;20231;-65
2023/09/25 05:14:47;;;;;;;3.28;2.97;;;6.60;99.90;;;;;;5011836;28;20206;-65
2023/09/25 05:17:14;;;;;;;3.72;3.35;;;6.50;99.90;;;;;;5011798;28;20207;-64
2023/09/25 05:19:41;;;;;;;3.58;3.35;;;6.50;99.90;;;;;;5010678;28;20571;-65
2023/09/25 05:22:09;;;;;;;2.40;2.20;;;6.50;99.90;;;;;;5010685;28;20211;-65
2023/09/25 05:24:37;;;;;;;3.95;3.65;;;6.50;99.90;;;;;;5010939;28;20747;-65
2023/09/25 05:27:05;;;;;;;4.15;3.85;;;6.50;99.90;;;;;;5011195;28;20226;-65
2023/09/25 05:29:31;;;;;;;3.05;2.85;;;6.50;99.90;;;;;;5011366;28;20249;-64
2023/09/25 05:31:58;;;;;;;3.95;3.67;;;6.50;99.90;;;;;;5003071;28;20206;-64
2023/09/25 05:34:25;;;;;;;4.10;3.80;;;6.50;99.90;;;;;;5011092;28;20213;-64
2023/09/25 05:36:52;;;;;;;3.33;3.03;;;6.50;99.90;;;;;;5011189;28;20210;-64
2023/09/25 05:39:19;;;;;;;4.00;3.70;;;6.50;99.90;;;;;;5011257;28;20203;-65
2023/09/25 05:41:47;;;;;;;4.20;3.80;;;6.50;99.90;;;;;;5011295;28;20217;-64
2023/09/25 05:44:14;;;;;;;4.57;4.28;;;6.50;99.90;;;;;;5010864;28;20233;-64
2023/09/25 05:46:41;;;;;;;2.67;2.47;;;6.50;99.90;;;;;;5011280;28;20321;-64
2023/09/25 05:49:09;;;;;;;3.13;2.92;;;6.50;99.90;;;;;;5011208;28;20207;-64
2023/09/25 05:51:37;;;;;;;3.30;3.10;;;6.50;99.90;;;;;;5011416;28;20211;-64
2023/09/25 05:54:05;;;;;;;4.13;3.83;;;6.50;99.90;;;;;;5010830;28;20224;-65
2023/09/25 05:56:32;;;;;;;3.40;3.20;;;6.50;99.90;;;;;;5010977;28;20206;-65
2023/09/25 05:59:02;;;;;;;3.50;3.25;;;6.60;99.90;;;;;;5010890;28;20685;-64
2023/09/25 06:01:29;;;;;;;3.85;3.55;;;6.50;99.90;;;;;;5010965;28;20239;-65
2023/09/25 06:03:57;;;;;;;3.55;3.28;;;6.50;99.90;;;;;;5010210;28;20321;-64
2023/09/25 06:06:24;;;;;;;3.72;3.40;;;6.50;99.90;;;;;;5011193;28;20238;-65
2023/09/25 06:08:52;;;;;;;4.07;3.13;;;6.60;99.90;;;;;;5011345;28;20206;-64
2023/09/25 06:11:19;;;;;;;3.80;3.47;;;6.50;99.90;;;;;;5014843;28;20258;-64
2023/09/25 06:13:46;;;;;;;4.78;4.10;;;6.60;99.90;;;;;;5014246;28;20270;-65
2023/09/25 06:16:15;;;;;;;4.00;3.80;;;6.60;99.90;;;;;;5014673;28;20313;-64
2023/09/25 06:18:43;;;;;;;3.97;3.70;;;6.70;99.90;;;;;;5014638;28;20242;-64
2023/09/25 06:21:10;;;;;;;3.60;3.40;;;6.70;99.90;;;;;;5014218;28;20207;-64
2023/09/25 06:23:37;;;;;;;5.85;3.88;;;6.70;99.90;;;;;;5013418;28;20233;-64
2023/09/25 06:26:06;;;;;;;4.00;3.70;;;6.70;99.90;;;;;;5014428;28;20203;-64
2023/09/25 06:28:33;;;;;;;3.95;3.40;;;6.80;99.90;;;;;;5014420;28;20214;-65
2023/09/25 06:31:00;;;;;;;3.90;3.38;;;6.80;99.90;;;;;;5014837;28;20623;-64
2023/09/25 06:33:28;;;;;;;4.22;3.83;;;6.80;99.90;;;;;;5014075;28;20233;-65
2023/09/25 06:35:55;;;;;;;3.92;3.13;;;6.90;99.90;;;;;;5014501;28;20237;-64
2023/09/25 06:38:22;;;;;;;5.00;4.60;;;6.90;99.90;;;;;;5014280;28;20326;-64
2023/09/25 06:40:49;;;;;;;6.05;4.07;;;6.90;99.90;;;;;;5014403;28;20203;-64
2023/09/25 06:43:16;;;;;;;3.67;3.35;;;7.00;99.90;;;;;;5013733;28;20231;-64
2023/09/25 06:45:44;;;;;;;3.88;3.58;;;7.00;99.90;;;;;;5014103;28;20673;-65
2023/09/25 06:48:10;;;;;;;3.78;3.58;;;7.10;99.90;;;;;;5014213;28;20203;-64
2023/09/25 06:50:38;;;;;;;4.45;4.13;;;7.10;99.90;;;;;;5013902;28;20207;-64
2023/09/25 06:53:05;;;;;;;3.63;3.35;;;7.10;99.90;;;;;;5013829;28;20597;-64
2023/09/25 06:55:33;;;;;;;3.92;3.63;;;7.20;99.90;;;;;;5013820;28;20317;-64
2023/09/25 06:58:00;;;;;;;4.25;3.10;;;7.20;99.90;;;;;;5013852;28;20325;-64
2023/09/25 07:00:26;;;;;;;5.03;4.57;;;7.30;99.90;;;;;;5014130;28;20594;-65
2023/09/25 07:02:53;;;;;;;4.10;3.38;;;7.30;99.90;;;;;;5013709;28;20237;-65
2023/09/25 07:05:20;;;;;;;3.65;3.45;;;7.40;99.90;;;;;;5013856;28;20295;-64
2023/09/25 07:07:50;;;;;;;4.25;4.05;;;7.40;99.90;;;;;;5013823;28;20203;-64
2023/09/25 07:10:17;;;;;;;4.00;3.70;;;7.50;99.90;;;;;;5013974;28;20238;-65
2023/09/25 07:12:44;;;;;;;3.83;3.45;;;7.50;99.90;;;;;;5013339;28;20278;-66
2023/09/25 07:15:12;;;;;;;3.90;3.60;;;7.60;99.90;;;;;;5013688;28;20214;-65
2023/09/25 07:17:39;;;;;;;4.10;3.80;;;7.60;99.90;;;;;;5013636;28;20227;-65
2023/09/25 07:20:07;;;;;;;3.40;3.05;;;7.70;99.90;;;;;;5013529;28;20645;-65
2023/09/25 07:22:34;;;;;;;3.97;3.67;;;7.80;99.90;;;;;;5013462;28;20729;-64
2023/09/25 07:25:02;;;;;;;4.03;3.63;;;7.80;99.90;;;;;;5013049;28;20591;-65
2023/09/25 07:27:29;;;;;;;4.43;4.03;;;8.00;99.90;;;;;;5013504;28;20210;-65
2023/09/25 07:29:55;;;;;;;4.30;3.90;;;8.00;99.90;;;;;;5013113;28;20772;-65
2023/09/25 07:32:22;;;;;;;4.72;4.15;;;8.10;99.90;;;;;;5011861;28;20653;-65
2023/09/25 07:34:49;;;;;;;5.15;4.20;;;8.30;99.90;;;;;;5012677;28;20208;-65
2023/09/25 07:37:17;;;;;;;6.43;4.45;;;8.40;99.90;;;;;;5012924;28;20303;-65
2023/09/25 07:39:44;;;;;;;3.17;2.97;;;8.60;99.90;;;;;;5006970;28;20376;-65
2023/09/25 07:42:13;;;;;;;14.18;5.72;;;8.80;99.90;;;;;;5008050;28;20255;-65
2023/09/25 07:44:40;;;;;;;4.00;3.70;;;8.90;99.90;;;;;;5012374;28;20220;-65
2023/09/25 07:47:10;;;;;;;4.17;3.87;;;9.10;99.90;;;;;;5013025;28;20206;-65
2023/09/25 07:49:40;;;;;;;4.53;4.13;;;9.30;99.90;;;;;;5012977;28;20484;-65
2023/09/25 07:52:15;;;;;;;4.20;3.80;;;9.60;99.90;;;;;;5012303;28;20460;-65
2023/09/25 07:54:43;;;;;;;4.93;4.53;;;9.80;99.90;;;;;;5012253;28;20494;-65
2023/09/25 07:57:14;;;;;;;5.07;4.67;;;9.90;99.90;;;;;;5012789;28;20498;-65
2023/09/25 07:59:40;;;;;;;6.90;6.13;;;10.20;99.90;;;;;;5012670;28;20459;-65
2023/09/25 08:02:08;;;;;;;6.13;5.60;;;10.30;99.90;;;;;;5012083;28;20300;-65
2023/09/25 08:04:35;;;;;;;11.30;6.37;;;10.50;99.90;;;;;;4992236;28;20453;-65
2023/09/25 08:07:02;;;;;;;4.80;4.40;;;10.70;99.90;;;;;;4992708;28;20449;-65
2023/09/25 08:09:30;;;;;;;4.53;4.13;;;10.90;99.90;;;;;;4992737;28;20445;-65
2023/09/25 08:11:56;;;;;;;5.47;4.27;;;11.10;99.90;;;;;;4992301;28;20536;-66
2023/09/25 08:14:25;;;;;;;6.80;5.37;;;11.20;99.90;;;;;;4992460;28;20449;-65
2023/09/25 08:16:52;;;;;;;4.23;3.93;;;11.40;99.90;;;;;;4992468;28;20497;-66
2023/09/25 08:19:22;;;;;;;6.87;6.37;;;11.60;99.90;;;;;;4992466;28;20462;-65
2023/09/25 08:21:49;;;;;;;6.27;5.77;;;11.70;99.90;;;;;;4992441;28;20464;-66
2023/09/25 08:24:16;;;;;;;6.60;6.00;;;11.90;99.90;;;;;;4993175;28;20853;-66
2023/09/25 08:26:46;;;;;;;5.60;5.20;;;12.10;99.90;;;;;;5008116;28;21131;-66
2023/09/25 08:29:13;;;;;;;5.77;5.30;;;12.30;99.90;;;;;;4996963;28;20496;-66
2023/09/25 08:31:43;;;;;;;6.47;5.87;;;12.40;99.90;;;;;;5002246;28;20534;-66
2023/09/25 08:34:10;;;;;;;4.80;4.50;;;12.60;99.90;;;;;;5003931;28;20554;-65
2023/09/25 08:36:37;;;;;;;4.60;4.20;;;12.70;99.90;;;;;;4995258;28;20438;-66
2023/09/25 08:39:05;;;;;;;4.73;4.33;;;12.80;99.90;;;;;;5009803;28;20522;-66
2023/09/25 08:41:32;;;;;;;4.73;4.30;;;12.90;99.90;;;;;;5002818;28;20443;-66
2023/09/25 08:43:59;;;;;;;6.33;5.83;;;13.10;99.90;;;;;;5001379;28;20477;-66
2023/09/25 08:46:28;;;;;;;8.40;5.87;;;13.20;99.90;;;;;;4995560;28;20455;-65
2023/09/25 08:48:59;;;;;;;5.73;5.30;;;13.30;99.90;;;;;;5007171;28;20446;-66
2023/09/25 08:51:26;;;;;;;4.97;4.47;;;13.50;99.90;;;;;;4998121;28;20482;-66
2023/09/25 08:53:52;;;;;;;5.87;5.47;;;13.60;99.90;;;;;;5011062;28;20470;-66
2023/09/25 08:56:20;;;;;;;6.70;4.37;;;13.70;99.90;;;;;;4997456;28;21037;-66
2023/09/25 08:58:50;;;;;;;5.77;5.30;;;13.90;99.90;;;;;;5008430;28;20522;-66
2023/09/25 09:01:18;;;;;;;5.00;4.60;;;14.00;99.90;;;;;;5005504;28;20458;-66
2023/09/25 09:03:45;;;;;;;4.80;4.40;;;14.20;99.90;;;;;;5000247;28;20468;-66
2023/09/25 09:06:14;;;;;;;5.53;5.00;;;14.30;99.90;;;;;;4998281;28;20494;-66
2023/09/25 09:08:43;;;;;;;6.03;5.57;;;14.40;99.90;;;;;;5008112;28;20884;-67
2023/09/25 09:11:11;;;;;;;4.63;4.33;;;14.60;99.90;;;;;;5006503;28;20452;-66
2023/09/25 09:13:44;;;;;;;4.53;4.13;;;14.70;99.90;;;;;;4998362;28;20478;-66
2023/09/25 09:16:14;;;;;;;4.80;4.50;;;14.80;99.90;;;;;;5011060;28;20446;-67
2023/09/25 09:18:42;;;;;;;4.47;4.20;;;15.00;99.90;;;;;;4994855;28;20497;-67
2023/09/25 09:21:25;;;;;;;4.90;4.50;;;15.10;99.90;;;;;;5006194;28;20506;-67
2023/09/25 09:23:53;;;;;;;6.47;4.60;;;15.20;99.90;;;;;;5000805;28;20498;-67
2023/09/25 09:26:20;;;;;;;4.90;4.60;;;15.30;99.90;;;;;;5011241;28;20453;-67
2023/09/25 09:28:48;;;;;;;4.73;4.33;;;15.50;99.90;;;;;;4994049;28;20453;-67
2023/09/25 09:31:17;;;;;;;5.50;5.07;;;15.60;99.90;;;;;;5005460;28;20449;-66
2023/09/25 09:33:45;;;;;;;4.20;3.80;;;15.80;99.90;;;;;;4999788;28;20505;-67
2023/09/25 09:36:13;;;;;;;5.77;4.93;;;15.90;99.90;;;;;;5010633;28;20526;-66
2023/09/25 09:38:43;;;;;;;3.67;3.47;;;16.10;99.90;;;;;;4993900;28;20889;-67
2023/09/25 09:41:10;;;;;;;3.63;3.43;;;16.20;99.90;;;;;;5006065;28;20448;-66
2023/09/25 09:43:38;;;;;;;5.03;4.63;;;16.30;99.90;;;;;;4998700;28;20463;-67
2023/09/25 09:46:05;;;;;;;4.77;3.53;;;16.40;99.90;;;;;;5003023;28;20457;-67
2023/09/25 09:48:33;;;;;;;4.43;4.03;;;16.60;99.90;;;;;;5010358;28;20446;-67
2023/09/25 09:51:03;;;;;;;4.63;4.23;;;16.70;99.90;;;;;;4998251;28;20456;-67
2023/09/25 09:53:33;;;;;;;3.70;3.40;;;16.80;99.90;;;;;;5007202;28;20481;-67
2023/09/25 09:56:02;;;;;;;4.50;4.20;;;17.00;99.90;;;;;;5006790;28;20455;-67
2023/09/25 09:58:30;;;;;;;4.30;3.90;;;17.00;99.90;;;;;;5014856;28;20487;-67
2023/09/25 10:00:58;;;;;;;3.70;3.40;;;17.10;99.90;;;;;;4998533;28;20450;-67
2023/09/25 10:03:26;;;;;;;5.23;4.20;;;17.20;99.90;;;;;;5007569;28;21062;-67
2023/09/25 10:05:55;;;;;;;3.80;3.60;;;17.30;99.90;;;;;;5005290;28;20909;-67
2023/09/25 10:08:23;;;;;;;3.30;3.00;;;17.50;99.90;;;;;;5014545;28;20483;-67
2023/09/25 10:10:51;;;;;;;3.60;3.30;;;17.60;99.90;;;;;;5006910;28;20454;-67
2023/09/25 10:13:25;;;;;;;4.30;3.93;;;17.70;99.90;;;;;;5007746;28;20481;-67
2023/09/25 10:15:55;;;;;;;3.03;2.83;;;17.70;99.90;;;;;;5000012;28;20456;-67
2023/09/25 10:18:22;;;;;;;3.57;3.30;;;17.80;99.90;;;;;;5000289;28;21029;-67
2023/09/25 10:20:50;;;;;;;3.70;3.40;;;17.90;99.90;;;;;;5011078;28;20453;-67
2023/09/25 10:23:22;;;;;;;4.60;4.17;;;18.00;99.90;;;;;;4999601;28;20829;-67
2023/09/25 10:25:51;;;;;;;3.23;3.00;;;18.10;99.90;;;;;;5014067;28;20463;-67
2023/09/25 10:28:24;;;;;;;3.77;3.47;;;18.20;99.90;;;;;;5004976;28;20511;-67
2023/09/25 10:30:51;;;;;;;3.80;3.50;;;18.30;99.90;;;;;;5010789;28;20481;-67
2023/09/25 10:33:18;;;;;;;3.13;2.97;;;18.50;99.90;;;;;;4999516;28;20475;-67
2023/09/25 10:35:48;;;;;;;3.60;3.13;;;18.60;99.90;;;;;;5014069;28;20487;-67
2023/09/25 10:38:17;;;;;;;3.93;3.53;;;18.70;99.90;;;;;;5000876;28;21016;-65
2023/09/25 10:40:45;;;;;;;3.63;3.33;;;18.80;99.90;;;;;;5011255;28;20986;-67
2023/09/25 10:43:12;;;;;;;4.27;3.97;;;18.90;99.70;;;;;;5009027;28;20498;-67
2023/09/25 10:45:40;;;;;;;4.30;3.90;;;19.00;99.90;;;;;;5002585;28;20456;-67
2023/09/25 10:48:08;;;;;;;3.50;3.30;;;19.00;99.40;;;;;;5013472;28;20529;-67
2023/09/25 10:50:37;;;;;;;5.03;3.30;;;19.00;97.40;;;;;;4997748;28;20528;-67
2023/09/25 10:53:05;;;;;;;3.27;2.97;;;19.10;98.00;;;;;;4997436;28;20894;-64
2023/09/25 10:55:33;;;;;;;3.23;3.00;;;19.20;97.80;;;;;;5005321;28;20465;-67
2023/09/25 10:58:00;;;;;;;3.20;3.00;;;19.20;98.10;;;;;;5005172;28;20485;-67
2023/09/25 11:00:28;;;;;;;3.63;2.87;;;19.30;98.00;;;;;;4998647;28;20451;-67
2023/09/25 11:02:57;;;;;;;3.20;2.83;;;19.40;98.00;;;;;;5009592;28;21066;-67
2023/09/25 11:05:24;;;;;;;3.57;3.27;;;19.50;98.10;;;;;;4999248;28;20451;-67
2023/09/25 11:07:51;;;;;;;3.50;3.20;;;19.60;97.40;;;;;;5001475;28;20525;-67
2023/09/25 11:10:18;;;;;;;2.20;2.10;;;19.60;96.80;;;;;;5006046;28;20441;-67
2023/09/25 11:12:47;;;;;;;2.93;2.83;;;19.70;96.90;;;;;;5010531;28;20478;-67
2023/09/25 11:15:17;;;;;;;3.97;3.67;;;19.70;96.50;;;;;;5011501;28;20455;-66
2023/09/25 11:17:45;;;;;;;6.00;3.53;;;19.80;96.50;;;;;;5003618;28;20534;-67
2023/09/25 11:20:15;;;;;;;3.47;3.20;;;19.80;96.40;;;;;;5000392;28;20530;-67
2023/09/25 11:22:42;;;;;;;3.23;2.97;;;19.90;96.30;;;;;;5008920;28;21241;-67
2023/09/25 11:25:12;;;;;;;3.27;3.00;;;20.00;96.50;;;;;;4997347;28;20556;-67
2023/09/25 11:27:39;;;;;;;3.13;2.93;;;20.10;96.60;;;;;;5013042;28;20454;-65
2023/09/25 11:30:11;;;;;;;3.03;2.83;;;20.30;96.30;;;;;;5007789;28;20454;-67
2023/09/25 11:32:39;;;;;;;3.07;2.90;;;20.40;95.40;;;;;;4995945;28;20478;-67
2023/09/25 11:35:08;;;;;;;3.30;3.00;;;20.50;95.30;;;;;;4996552;28;20454;-65
2023/09/25 11:37:36;;;;;;;4.57;3.10;;;20.60;94.90;;;;;;5002983;28;20535;-65
2023/09/25 11:40:07;;;;;;;3.53;3.30;;;20.70;94.80;;;;;;5004557;28;20445;-65
2023/09/25 11:42:34;;;;;;;3.50;3.30;;;20.80;93.90;;;;;;4996511;28;20483;-65
2023/09/25 11:45:00;;;;;;;4.60;3.43;;;20.90;93.80;;;;;;5008028;28;20451;-65
2023/09/25 11:47:27;;;;;;;3.17;2.97;;;21.10;94.40;;;;;;4999711;28;20551;-65
2023/09/25 11:49:56;;;;;;;3.80;3.50;;;21.20;93.70;;;;;;5002349;28;20528;-65
2023/09/25 11:52:23;;;;;;;3.93;3.57;;;21.30;92.60;;;;;;4997677;28;20469;-66
2023/09/25 11:54:52;;;;;;;3.13;2.93;;;21.40;92.70;;;;;;5010586;28;20444;-64
2023/09/25 11:57:19;;;;;;;3.93;3.63;;;21.50;93.10;;;;;;5006127;28;20452;-64
2023/09/25 11:59:46;;;;;;;3.17;2.97;;;21.70;93.70;;;;;;5001500;28;20510;-64
2023/09/25 12:02:13;;;;;;;2.83;2.63;;;21.80;92.70;;;;;;5011614;28;20840;-64
2023/09/25 12:04:42;;;;;;;3.10;2.87;;;21.90;92.40;;;;;;4995498;28;20447;-64
2023/09/25 12:07:10;;;;;;;3.23;3.03;;;22.10;92.10;;;;;;5005705;28;20451;-64
2023/09/25 12:09:37;;;;;;;3.17;2.97;;;22.20;92.00;;;;;;4998753;28;20938;-64
2023/09/25 12:12:05;;;;;;;3.03;2.80;;;22.30;90.60;;;;;;4992013;28;20439;-63
2023/09/25 12:14:33;;;;;;;4.50;2.70;;;22.30;88.10;;;;;;5007655;28;20449;-64
2023/09/25 12:17:00;;;;;;;2.90;2.70;;;22.30;90.40;;;;;;4995534;28;20461;-65
2023/09/25 12:19:26;;;;;;;2.93;2.70;;;22.50;91.30;;;;;;5009626;28;20514;-66
2023/09/25 12:21:53;;;;;;;4.07;3.10;;;22.60;91.70;;;;;;5000334;28;20446;-67
2023/09/25 12:24:20;;;;;;;3.90;3.60;;;22.80;91.80;;;;;;5005453;28;20502;-65
2023/09/25 12:26:47;;;;;;;3.00;2.80;;;22.90;90.90;;;;;;4995032;28;20457;-66
2023/09/25 12:29:15;;;;;;;3.00;2.40;;;23.00;90.60;;;;;;5006275;28;20439;-65
2023/09/25 12:31:42;;;;;;;4.03;3.60;;;23.10;90.60;;;;;;5000422;28;20452;-66
2023/09/25 12:34:09;;;;;;;2.43;2.33;;;23.10;87.30;;;;;;5011010;28;20476;-66
2023/09/25 12:36:36;;;;;;;2.73;2.53;;;23.10;89.00;;;;;;4995312;28;20886;-66
2023/09/25 12:39:02;;;;;;;3.37;3.07;;;23.20;89.80;;;;;;4995044;28;20550;-65
2023/09/25 12:41:31;;;;;;;3.13;2.90;;;23.30;88.90;;;;;;5011183;28;20890;-66
2023/09/25 12:43:57;;;;;;;3.33;2.93;;;23.50;89.10;;;;;;4999946;28;20595;-66
2023/09/25 12:46:26;;;;;;;2.60;2.30;;;23.70;87.90;;;;;;5005986;28;20446;-66
2023/09/25 12:48:53;;;;;;;2.73;2.13;;;23.80;86.10;;;;;;5008967;28;20447;-66
2023/09/25 12:51:19;;;;;;;2.93;2.67;;;24.10;85.70;;;;;;4996935;28;20967;-66
2023/09/25 12:53:46;;;;;;;2.70;2.50;;;24.30;83.80;;;;;;5010710;28;20469;-66
2023/09/25 12:56:13;;;;;;;3.13;2.83;;;24.30;79.10;;;;;;4997804;28;20444;-66